sensor_id;sensor_type;location;lat;lon;timestamp;temperature;humidity
29663;DHT22;16578;53.266;7.920;2023-08-21T00:01:25;22.10;72.60
29663;DHT22;16578;53.266;7.920;2023-08-21T00:03:51;22.10;72.60
29663;DHT22;16578;53.266;7.920;2023-08-21T00:06:16;22.00;72.40
29663;DHT22;16578;53.266;7.920;2023-08-21T00:08:42;22.00;72.60
29663;DHT22;16578;53.266;7.920;2023-08-21T00:11:07;22.00;72.80
29663;DHT22;16578;53.266;7.920;2023-08-21T00:13:33;22.00;72.90
29663;DHT22;16578;53.266;7.920;2023-08-21T00:15:58;21.90;73.70
29663;DHT22;16578;53.266;7.920;2023-08-21T00:18:24;21.90;72.70
29663;DHT22;16578;53.266;7.920;2023-08-21T00:20:49;21.90;72.70
29663;DHT22;16578;53.266;7.920;2023-08-21T00:23:15;21.90;72.70
29663;DHT22;16578;53.266;7.920;2023-08-21T00:25:45;21.90;72.80
29663;DHT22;16578;53.266;7.920;2023-08-21T00:28:11;21.80;72.70
29663;DHT22;16578;53.266;7.920;2023-08-21T00:30:37;21.80;72.70
29663;DHT22;16578;53.266;7.920;2023-08-21T00:33:03;21.80;72.80
29663;DHT22;16578;53.266;7.920;2023-08-21T00:35:28;21.80;73.00
29663;DHT22;16578;53.266;7.920;2023-08-21T00:37:54;21.70;73.10
29663;DHT22;16578;53.266;7.920;2023-08-21T00:40:19;21.70;73.10
29663;DHT22;16578;53.266;7.920;2023-08-21T00:42:45;21.70;73.10
29663;DHT22;16578;53.266;7.920;2023-08-21T00:45:10;21.70;73.00
29663;DHT22;16578;53.266;7.920;2023-08-21T00:47:37;21.60;73.00
29663;DHT22;16578;53.266;7.920;2023-08-21T00:50:03;21.60;73.10
29663;DHT22;16578;53.266;7.920;2023-08-21T00:52:29;21.60;73.00
29663;DHT22;16578;53.266;7.920;2023-08-21T00:54:55;21.50;73.00
29663;DHT22;16578;53.266;7.920;2023-08-21T00:57:21;21.50;73.10
29663;DHT22;16578;53.266;7.920;2023-08-21T00:59:48;21.40;73.30
29663;DHT22;16578;53.266;7.920;2023-08-21T01:02:14;21.40;73.50
29663;DHT22;16578;53.266;7.920;2023-08-21T01:04:39;21.40;73.60
29663;DHT22;16578;53.266;7.920;2023-08-21T01:07:05;21.40;73.80
29663;DHT22;16578;53.266;7.920;2023-08-21T01:12:52;21.30;74.00
29663;DHT22;16578;53.266;7.920;2023-08-21T01:15:19;21.30;74.20
29663;DHT22;16578;53.266;7.920;2023-08-21T01:17:46;21.20;74.00
29663;DHT22;16578;53.266;7.920;2023-08-21T01:20:12;21.20;74.20
29663;DHT22;16578;53.266;7.920;2023-08-21T01:22:41;21.20;74.30
29663;DHT22;16578;53.266;7.920;2023-08-21T01:25:11;21.20;74.50
29663;DHT22;16578;53.266;7.920;2023-08-21T01:27:38;21.10;74.40
29663;DHT22;16578;53.266;7.920;2023-08-21T01:30:05;21.10;74.60
29663;DHT22;16578;53.266;7.920;2023-08-21T01:33:01;21.10;74.60
29663;DHT22;16578;53.266;7.920;2023-08-21T01:35:30;21.20;74.70
29663;DHT22;16578;53.266;7.920;2023-08-21T01:37:56;21.10;74.60
29663;DHT22;16578;53.266;7.920;2023-08-21T01:40:23;21.10;75.60
29663;DHT22;16578;53.266;7.920;2023-08-21T01:42:49;21.10;74.60
29663;DHT22;16578;53.266;7.920;2023-08-21T01:45:14;21.10;74.60
29663;DHT22;16578;53.266;7.920;2023-08-21T01:47:40;21.10;74.60
29663;DHT22;16578;53.266;7.920;2023-08-21T01:50:06;21.10;74.60
29663;DHT22;16578;53.266;7.920;2023-08-21T01:52:32;21.10;74.50
29663;DHT22;16578;53.266;7.920;2023-08-21T01:54:58;21.10;74.50
29663;DHT22;16578;53.266;7.920;2023-08-21T01:57:23;21.10;74.50
29663;DHT22;16578;53.266;7.920;2023-08-21T01:59:49;21.10;74.50
29663;DHT22;16578;53.266;7.920;2023-08-21T02:02:14;21.10;74.50
29663;DHT22;16578;53.266;7.920;2023-08-21T02:04:40;21.10;74.60
29663;DHT22;16578;53.266;7.920;2023-08-21T02:07:05;21.10;74.70
29663;DHT22;16578;53.266;7.920;2023-08-21T02:09:32;21.00;74.60
29663;DHT22;16578;53.266;7.920;2023-08-21T02:11:58;21.00;74.50
29663;DHT22;16578;53.266;7.920;2023-08-21T02:14:24;21.00;74.60
29663;DHT22;16578;53.266;7.920;2023-08-21T02:16:49;21.00;74.70
29663;DHT22;16578;53.266;7.920;2023-08-21T02:19:15;21.00;74.60
29663;DHT22;16578;53.266;7.920;2023-08-21T02:21:40;21.00;74.40
29663;DHT22;16578;53.266;7.920;2023-08-21T02:24:06;21.00;74.30
29663;DHT22;16578;53.266;7.920;2023-08-21T02:26:31;21.00;74.40
29663;DHT22;16578;53.266;7.920;2023-08-21T02:28:57;20.90;74.40
29663;DHT22;16578;53.266;7.920;2023-08-21T02:31:23;20.90;74.40
29663;DHT22;16578;53.266;7.920;2023-08-21T02:33:48;20.90;74.30
29663;DHT22;16578;53.266;7.920;2023-08-21T02:36:15;20.90;74.30
29663;DHT22;16578;53.266;7.920;2023-08-21T02:38:41;20.90;74.30
29663;DHT22;16578;53.266;7.920;2023-08-21T02:41:06;20.80;74.20
29663;DHT22;16578;53.266;7.920;2023-08-21T02:43:33;20.90;74.20
29663;DHT22;16578;53.266;7.920;2023-08-21T02:45:59;20.80;74.00
29663;DHT22;16578;53.266;7.920;2023-08-21T02:48:24;20.90;74.10
29663;DHT22;16578;53.266;7.920;2023-08-21T02:50:50;20.80;74.00
29663;DHT22;16578;53.266;7.920;2023-08-21T02:53:15;20.80;74.10
29663;DHT22;16578;53.266;7.920;2023-08-21T02:55:41;20.80;74.10
29663;DHT22;16578;53.266;7.920;2023-08-21T02:58:06;20.80;74.00
29663;DHT22;16578;53.266;7.920;2023-08-21T03:00:32;20.80;73.90
29663;DHT22;16578;53.266;7.920;2023-08-21T03:02:58;20.70;73.80
29663;DHT22;16578;53.266;7.920;2023-08-21T03:05:23;20.70;73.90
29663;DHT22;16578;53.266;7.920;2023-08-21T03:07:49;20.70;74.00
29663;DHT22;16578;53.266;7.920;2023-08-21T03:10:14;20.70;74.00
29663;DHT22;16578;53.266;7.920;2023-08-21T03:12:40;20.70;73.90
29663;DHT22;16578;53.266;7.920;2023-08-21T03:15:06;20.60;73.80
29663;DHT22;16578;53.266;7.920;2023-08-21T03:17:32;20.60;74.70
29663;DHT22;16578;53.266;7.920;2023-08-21T03:19:58;20.60;73.80
29663;DHT22;16578;53.266;7.920;2023-08-21T03:22:23;20.60;73.70
29663;DHT22;16578;53.266;7.920;2023-08-21T03:24:49;20.60;73.70
29663;DHT22;16578;53.266;7.920;2023-08-21T03:27:18;20.50;73.60
29663;DHT22;16578;53.266;7.920;2023-08-21T03:29:44;20.50;73.50
29663;DHT22;16578;53.266;7.920;2023-08-21T03:32:17;20.40;73.40
29663;DHT22;16578;53.266;7.920;2023-08-21T03:34:44;20.50;73.50
29663;DHT22;16578;53.266;7.920;2023-08-21T03:37:10;20.40;73.50
29663;DHT22;16578;53.266;7.920;2023-08-21T03:39:36;20.40;73.50
29663;DHT22;16578;53.266;7.920;2023-08-21T03:42:01;20.40;73.70
29663;DHT22;16578;53.266;7.920;2023-08-21T03:44:27;20.30;73.80
29663;DHT22;16578;53.266;7.920;2023-08-21T03:46:52;20.30;73.80
29663;DHT22;16578;53.266;7.920;2023-08-21T03:49:18;20.30;74.00
29663;DHT22;16578;53.266;7.920;2023-08-21T03:51:44;20.30;74.00
29663;DHT22;16578;53.266;7.920;2023-08-21T03:54:09;20.30;74.00
29663;DHT22;16578;53.266;7.920;2023-08-21T03:56:36;20.30;74.10
29663;DHT22;16578;53.266;7.920;2023-08-21T03:59:01;20.30;74.00
29663;DHT22;16578;53.266;7.920;2023-08-21T04:01:27;20.20;73.90
29663;DHT22;16578;53.266;7.920;2023-08-21T04:03:52;20.20;73.90
29663;DHT22;16578;53.266;7.920;2023-08-21T04:06:18;20.20;73.90
29663;DHT22;16578;53.266;7.920;2023-08-21T04:08:43;20.20;73.90
29663;DHT22;16578;53.266;7.920;2023-08-21T04:11:09;20.20;73.90
29663;DHT22;16578;53.266;7.920;2023-08-21T04:13:35;20.10;73.90
29663;DHT22;16578;53.266;7.920;2023-08-21T04:16:00;20.10;74.00
29663;DHT22;16578;53.266;7.920;2023-08-21T04:18:26;20.10;74.00
29663;DHT22;16578;53.266;7.920;2023-08-21T04:20:51;20.10;74.10
29663;DHT22;16578;53.266;7.920;2023-08-21T04:23:17;20.10;74.20
29663;DHT22;16578;53.266;7.920;2023-08-21T04:25:43;20.10;75.10
29663;DHT22;16578;53.266;7.920;2023-08-21T04:28:09;20.10;74.30
29663;DHT22;16578;53.266;7.920;2023-08-21T04:30:34;20.00;74.30
29663;DHT22;16578;53.266;7.920;2023-08-21T04:33:00;20.00;74.30
29663;DHT22;16578;53.266;7.920;2023-08-21T04:35:26;20.00;74.30
29663;DHT22;16578;53.266;7.920;2023-08-21T04:37:51;20.00;74.40
29663;DHT22;16578;53.266;7.920;2023-08-21T04:40:17;20.00;74.30
29663;DHT22;16578;53.266;7.920;2023-08-21T04:42:45;20.00;74.20
29663;DHT22;16578;53.266;7.920;2023-08-21T04:45:11;19.90;74.20
29663;DHT22;16578;53.266;7.920;2023-08-21T04:47:36;19.90;74.40
29663;DHT22;16578;53.266;7.920;2023-08-21T04:50:02;19.90;74.50
29663;DHT22;16578;53.266;7.920;2023-08-21T04:52:28;19.90;74.70
29663;DHT22;16578;53.266;7.920;2023-08-21T04:54:54;19.90;74.70
29663;DHT22;16578;53.266;7.920;2023-08-21T04:57:19;19.90;74.70
29663;DHT22;16578;53.266;7.920;2023-08-21T04:59:46;19.90;74.80
29663;DHT22;16578;53.266;7.920;2023-08-21T05:02:12;19.90;74.70
29663;DHT22;16578;53.266;7.920;2023-08-21T05:04:38;19.90;74.80
29663;DHT22;16578;53.266;7.920;2023-08-21T05:07:04;19.90;74.80
29663;DHT22;16578;53.266;7.920;2023-08-21T05:09:30;19.90;74.80
29663;DHT22;16578;53.266;7.920;2023-08-21T05:11:56;19.90;74.90
29663;DHT22;16578;53.266;7.920;2023-08-21T05:14:22;19.90;74.90
29663;DHT22;16578;53.266;7.920;2023-08-21T05:16:49;19.90;75.10
29663;DHT22;16578;53.266;7.920;2023-08-21T05:19:15;19.90;75.10
29663;DHT22;16578;53.266;7.920;2023-08-21T05:21:41;19.90;75.30
29663;DHT22;16578;53.266;7.920;2023-08-21T05:24:06;20.00;75.50
29663;DHT22;16578;53.266;7.920;2023-08-21T05:26:32;20.00;75.60
29663;DHT22;16578;53.266;7.920;2023-08-21T05:28:57;20.00;75.60
29663;DHT22;16578;53.266;7.920;2023-08-21T05:31:23;20.00;75.70
29663;DHT22;16578;53.266;7.920;2023-08-21T05:33:48;20.00;75.70
29663;DHT22;16578;53.266;7.920;2023-08-21T05:36:14;20.00;75.70
29663;DHT22;16578;53.266;7.920;2023-08-21T05:38:40;20.00;75.80
29663;DHT22;16578;53.266;7.920;2023-08-21T05:41:05;20.00;75.90
29663;DHT22;16578;53.266;7.920;2023-08-21T05:43:31;20.00;76.00
29663;DHT22;16578;53.266;7.920;2023-08-21T05:45:57;20.00;76.00
29663;DHT22;16578;53.266;7.920;2023-08-21T05:48:22;20.00;76.10
29663;DHT22;16578;53.266;7.920;2023-08-21T05:50:52;20.10;76.30
29663;DHT22;16578;53.266;7.920;2023-08-21T05:53:17;20.10;76.40
29663;DHT22;16578;53.266;7.920;2023-08-21T05:55:43;20.10;76.40
29663;DHT22;16578;53.266;7.920;2023-08-21T05:58:08;20.20;76.50
29663;DHT22;16578;53.266;7.920;2023-08-21T06:00:34;20.20;76.60
29663;DHT22;16578;53.266;7.920;2023-08-21T06:03:01;20.20;76.70
29663;DHT22;16578;53.266;7.920;2023-08-21T06:05:26;20.30;76.80
29663;DHT22;16578;53.266;7.920;2023-08-21T06:07:52;20.30;76.90
29663;DHT22;16578;53.266;7.920;2023-08-21T06:10:17;20.30;76.90
29663;DHT22;16578;53.266;7.920;2023-08-21T06:12:43;20.30;77.00
29663;DHT22;16578;53.266;7.920;2023-08-21T06:15:10;20.40;77.20
29663;DHT22;16578;53.266;7.920;2023-08-21T06:17:38;20.40;77.40
29663;DHT22;16578;53.266;7.920;2023-08-21T06:20:05;20.40;77.30
29663;DHT22;16578;53.266;7.920;2023-08-21T06:22:31;20.40;77.50
29663;DHT22;16578;53.266;7.920;2023-08-21T06:24:57;20.50;77.60
29663;DHT22;16578;53.266;7.920;2023-08-21T06:27:23;20.50;77.70
29663;DHT22;16578;53.266;7.920;2023-08-21T06:29:48;20.60;77.90
29663;DHT22;16578;53.266;7.920;2023-08-21T06:32:14;20.60;78.10
29663;DHT22;16578;53.266;7.920;2023-08-21T06:34:39;20.70;78.20
29663;DHT22;16578;53.266;7.920;2023-08-21T06:37:05;20.70;78.40
29663;DHT22;16578;53.266;7.920;2023-08-21T06:39:31;20.80;78.60
29663;DHT22;16578;53.266;7.920;2023-08-21T06:41:56;20.80;78.60
29663;DHT22;16578;53.266;7.920;2023-08-21T06:44:22;20.90;78.80
29663;DHT22;16578;53.266;7.920;2023-08-21T06:46:47;20.90;78.80
29663;DHT22;16578;53.266;7.920;2023-08-21T06:49:13;21.00;78.90
29663;DHT22;16578;53.266;7.920;2023-08-21T06:51:38;21.00;78.90
29663;DHT22;16578;53.266;7.920;2023-08-21T06:54:04;21.10;78.80
29663;DHT22;16578;53.266;7.920;2023-08-21T06:56:29;21.20;78.90
29663;DHT22;16578;53.266;7.920;2023-08-21T06:58:55;21.20;78.90
29663;DHT22;16578;53.266;7.920;2023-08-21T07:01:21;21.30;78.80
29663;DHT22;16578;53.266;7.920;2023-08-21T07:03:46;21.40;78.80
29663;DHT22;16578;53.266;7.920;2023-08-21T07:06:12;21.40;78.80
29663;DHT22;16578;53.266;7.920;2023-08-21T07:08:38;21.50;79.10
29663;DHT22;16578;53.266;7.920;2023-08-21T07:11:06;21.50;79.10
29663;DHT22;16578;53.266;7.920;2023-08-21T07:13:33;21.60;79.20
29663;DHT22;16578;53.266;7.920;2023-08-21T07:15:59;21.60;79.10
29663;DHT22;16578;53.266;7.920;2023-08-21T07:18:28;21.80;79.20
29663;DHT22;16578;53.266;7.920;2023-08-21T07:20:54;21.80;79.30
29663;DHT22;16578;53.266;7.920;2023-08-21T07:23:19;21.90;79.30
29663;DHT22;16578;53.266;7.920;2023-08-21T07:25:45;22.00;79.30
29663;DHT22;16578;53.266;7.920;2023-08-21T07:28:10;22.00;79.20
29663;DHT22;16578;53.266;7.920;2023-08-21T07:30:37;22.10;78.90
29663;DHT22;16578;53.266;7.920;2023-08-21T07:33:04;22.20;78.70
29663;DHT22;16578;53.266;7.920;2023-08-21T07:35:30;22.30;78.50
29663;DHT22;16578;53.266;7.920;2023-08-21T07:37:56;22.30;78.10
29663;DHT22;16578;53.266;7.920;2023-08-21T07:40:21;22.30;77.80
29663;DHT22;16578;53.266;7.920;2023-08-21T07:42:47;22.40;77.80
29663;DHT22;16578;53.266;7.920;2023-08-21T07:45:13;22.40;77.80
29663;DHT22;16578;53.266;7.920;2023-08-21T07:47:38;22.50;77.80
29663;DHT22;16578;53.266;7.920;2023-08-21T07:50:05;22.50;77.80
29663;DHT22;16578;53.266;7.920;2023-08-21T07:52:32;22.60;77.90
29663;DHT22;16578;53.266;7.920;2023-08-21T07:54:58;22.60;77.90
29663;DHT22;16578;53.266;7.920;2023-08-21T07:57:26;22.70;77.40
29663;DHT22;16578;53.266;7.920;2023-08-21T07:59:52;22.70;76.60
29663;DHT22;16578;53.266;7.920;2023-08-21T08:02:17;22.80;76.50
29663;DHT22;16578;53.266;7.920;2023-08-21T08:04:44;22.80;76.40
29663;DHT22;16578;53.266;7.920;2023-08-21T08:07:09;22.90;76.20
29663;DHT22;16578;53.266;7.920;2023-08-21T08:09:35;22.90;76.10
29663;DHT22;16578;53.266;7.920;2023-08-21T08:12:01;22.90;75.70
29663;DHT22;16578;53.266;7.920;2023-08-21T08:14:27;23.00;74.90
29663;DHT22;16578;53.266;7.920;2023-08-21T08:16:52;23.00;74.10
29663;DHT22;16578;53.266;7.920;2023-08-21T08:19:18;23.00;73.60
29663;DHT22;16578;53.266;7.920;2023-08-21T08:21:43;23.10;73.90
29663;DHT22;16578;53.266;7.920;2023-08-21T08:24:09;23.10;73.70
29663;DHT22;16578;53.266;7.920;2023-08-21T08:26:35;23.10;73.80
29663;DHT22;16578;53.266;7.920;2023-08-21T08:29:00;23.20;74.60
29663;DHT22;16578;53.266;7.920;2023-08-21T08:31:26;23.20;73.00
29663;DHT22;16578;53.266;7.920;2023-08-21T08:33:53;23.20;72.70
29663;DHT22;16578;53.266;7.920;2023-08-21T08:36:19;23.30;72.60
29663;DHT22;16578;53.266;7.920;2023-08-21T08:38:45;23.30;72.30
29663;DHT22;16578;53.266;7.920;2023-08-21T08:41:17;23.30;72.10
29663;DHT22;16578;53.266;7.920;2023-08-21T08:43:50;23.40;71.80
29663;DHT22;16578;53.266;7.920;2023-08-21T08:46:17;23.40;71.90
29663;DHT22;16578;53.266;7.920;2023-08-21T08:48:43;23.40;72.10
29663;DHT22;16578;53.266;7.920;2023-08-21T08:51:09;23.50;72.50
29663;DHT22;16578;53.266;7.920;2023-08-21T08:53:36;23.60;72.80
29663;DHT22;16578;53.266;7.920;2023-08-21T08:56:02;23.70;72.90
29663;DHT22;16578;53.266;7.920;2023-08-21T08:58:29;23.70;72.60
29663;DHT22;16578;53.266;7.920;2023-08-21T09:00:54;23.80;72.70
29663;DHT22;16578;53.266;7.920;2023-08-21T09:03:20;23.90;72.50
29663;DHT22;16578;53.266;7.920;2023-08-21T09:05:45;24.00;72.30
29663;DHT22;16578;53.266;7.920;2023-08-21T09:08:13;24.10;72.30
29663;DHT22;16578;53.266;7.920;2023-08-21T09:10:40;24.10;71.90
29663;DHT22;16578;53.266;7.920;2023-08-21T09:13:17;24.20;70.90
29663;DHT22;16578;53.266;7.920;2023-08-21T09:15:48;24.30;70.90
29663;DHT22;16578;53.266;7.920;2023-08-21T09:18:14;24.40;71.00
29663;DHT22;16578;53.266;7.920;2023-08-21T09:20:43;24.40;71.00
29663;DHT22;16578;53.266;7.920;2023-08-21T09:23:15;24.40;70.80
29663;DHT22;16578;53.266;7.920;2023-08-21T09:25:44;24.50;69.60
29663;DHT22;16578;53.266;7.920;2023-08-21T09:28:12;24.60;69.40
29663;DHT22;16578;53.266;7.920;2023-08-21T09:30:50;24.60;69.40
29663;DHT22;16578;53.266;7.920;2023-08-21T09:33:20;24.60;68.20
29663;DHT22;16578;53.266;7.920;2023-08-21T09:35:47;24.60;69.10
29663;DHT22;16578;53.266;7.920;2023-08-21T09:38:13;24.60;69.00
29663;DHT22;16578;53.266;7.920;2023-08-21T09:40:43;24.60;68.00
29663;DHT22;16578;53.266;7.920;2023-08-21T09:43:13;24.70;67.50
29663;DHT22;16578;53.266;7.920;2023-08-21T09:45:38;24.60;67.40
29663;DHT22;16578;53.266;7.920;2023-08-21T09:48:05;24.60;67.90
29663;DHT22;16578;53.266;7.920;2023-08-21T09:50:31;24.70;68.50
29663;DHT22;16578;53.266;7.920;2023-08-21T09:52:58;24.60;68.50
29663;DHT22;16578;53.266;7.920;2023-08-21T09:55:24;24.70;67.90
29663;DHT22;16578;53.266;7.920;2023-08-21T09:57:58;24.70;68.30
29663;DHT22;16578;53.266;7.920;2023-08-21T10:00:29;24.80;68.70
29663;DHT22;16578;53.266;7.920;2023-08-21T10:03:00;24.80;66.90
29663;DHT22;16578;53.266;7.920;2023-08-21T10:05:27;24.80;67.90
29663;DHT22;16578;53.266;7.920;2023-08-21T10:07:53;24.80;68.20
29663;DHT22;16578;53.266;7.920;2023-08-21T10:10:20;24.90;68.30
29663;DHT22;16578;53.266;7.920;2023-08-21T10:12:47;24.90;68.00
29663;DHT22;16578;53.266;7.920;2023-08-21T10:15:13;25.00;67.60
29663;DHT22;16578;53.266;7.920;2023-08-21T10:17:39;25.00;67.00
29663;DHT22;16578;53.266;7.920;2023-08-21T10:20:08;25.00;66.80
29663;DHT22;16578;53.266;7.920;2023-08-21T10:22:45;25.00;66.60
29663;DHT22;16578;53.266;7.920;2023-08-21T10:25:17;25.10;66.10
29663;DHT22;16578;53.266;7.920;2023-08-21T10:27:46;25.10;65.90
29663;DHT22;16578;53.266;7.920;2023-08-21T10:30:19;25.10;66.10
29663;DHT22;16578;53.266;7.920;2023-08-21T10:32:48;25.10;65.90
29663;DHT22;16578;53.266;7.920;2023-08-21T10:35:16;25.10;65.60
29663;DHT22;16578;53.266;7.920;2023-08-21T10:40:27;25.00;66.10
29663;DHT22;16578;53.266;7.920;2023-08-21T10:42:53;25.10;66.20
29663;DHT22;16578;53.266;7.920;2023-08-21T10:45:19;25.20;66.10
29663;DHT22;16578;53.266;7.920;2023-08-21T10:47:45;25.20;66.30
29663;DHT22;16578;53.266;7.920;2023-08-21T10:50:12;25.20;66.90
29663;DHT22;16578;53.266;7.920;2023-08-21T10:52:40;25.30;66.30
29663;DHT22;16578;53.266;7.920;2023-08-21T10:55:12;25.40;66.30
29663;DHT22;16578;53.266;7.920;2023-08-21T10:57:38;25.40;65.90
29663;DHT22;16578;53.266;7.920;2023-08-21T11:00:11;25.40;65.40
29663;DHT22;16578;53.266;7.920;2023-08-21T11:02:38;25.50;65.00
29663;DHT22;16578;53.266;7.920;2023-08-21T11:05:04;25.50;64.80
29663;DHT22;16578;53.266;7.920;2023-08-21T11:07:36;25.60;64.50
29663;DHT22;16578;53.266;7.920;2023-08-21T11:10:02;25.60;63.90
29663;DHT22;16578;53.266;7.920;2023-08-21T11:12:28;25.60;63.50
29663;DHT22;16578;53.266;7.920;2023-08-21T11:14:54;25.60;63.70
29663;DHT22;16578;53.266;7.920;2023-08-21T11:17:19;25.70;63.90
29663;DHT22;16578;53.266;7.920;2023-08-21T11:19:45;25.70;63.70
29663;DHT22;16578;53.266;7.920;2023-08-21T11:22:13;25.70;63.90
29663;DHT22;16578;53.266;7.920;2023-08-21T11:24:44;25.70;63.90
29663;DHT22;16578;53.266;7.920;2023-08-21T11:27:12;25.70;63.90
29663;DHT22;16578;53.266;7.920;2023-08-21T11:29:41;25.80;64.10
29663;DHT22;16578;53.266;7.920;2023-08-21T11:32:18;25.80;63.50
29663;DHT22;16578;53.266;7.920;2023-08-21T11:35:04;25.80;63.70
29663;DHT22;16578;53.266;7.920;2023-08-21T11:37:29;25.80;63.90
29663;DHT22;16578;53.266;7.920;2023-08-21T11:39:57;25.80;63.80
29663;DHT22;16578;53.266;7.920;2023-08-21T11:42:30;25.90;63.10
29663;DHT22;16578;53.266;7.920;2023-08-21T11:44:56;25.90;62.90
29663;DHT22;16578;53.266;7.920;2023-08-21T11:47:22;25.90;63.20
29663;DHT22;16578;53.266;7.920;2023-08-21T11:49:49;25.90;62.90
29663;DHT22;16578;53.266;7.920;2023-08-21T11:52:19;26.00;62.10
29663;DHT22;16578;53.266;7.920;2023-08-21T11:54:49;26.00;61.80
29663;DHT22;16578;53.266;7.920;2023-08-21T11:57:15;26.00;62.10
29663;DHT22;16578;53.266;7.920;2023-08-21T11:59:40;26.00;62.20
29663;DHT22;16578;53.266;7.920;2023-08-21T12:02:28;26.00;61.20
29663;DHT22;16578;53.266;7.920;2023-08-21T12:05:07;26.00;60.20
29663;DHT22;16578;53.266;7.920;2023-08-21T12:07:38;26.00;60.40
29663;DHT22;16578;53.266;7.920;2023-08-21T12:10:04;26.00;61.30
29663;DHT22;16578;53.266;7.920;2023-08-21T12:12:30;26.00;60.70
29663;DHT22;16578;53.266;7.920;2023-08-21T12:14:55;26.00;61.20
29663;DHT22;16578;53.266;7.920;2023-08-21T12:17:22;26.00;59.70
29663;DHT22;16578;53.266;7.920;2023-08-21T12:19:47;26.00;60.10
29663;DHT22;16578;53.266;7.920;2023-08-21T12:22:13;26.00;60.00
29663;DHT22;16578;53.266;7.920;2023-08-21T12:24:38;26.00;59.90
29663;DHT22;16578;53.266;7.920;2023-08-21T12:27:05;26.00;60.10
29663;DHT22;16578;53.266;7.920;2023-08-21T12:29:31;26.10;59.90
29663;DHT22;16578;53.266;7.920;2023-08-21T12:31:57;26.10;60.00
29663;DHT22;16578;53.266;7.920;2023-08-21T12:34:22;26.10;60.60
29663;DHT22;16578;53.266;7.920;2023-08-21T12:36:50;26.20;60.20
29663;DHT22;16578;53.266;7.920;2023-08-21T12:39:15;26.20;60.30
29663;DHT22;16578;53.266;7.920;2023-08-21T12:41:42;26.20;60.60
29663;DHT22;16578;53.266;7.920;2023-08-21T12:44:08;26.20;60.60
29663;DHT22;16578;53.266;7.920;2023-08-21T12:46:34;26.30;60.50
29663;DHT22;16578;53.266;7.920;2023-08-21T12:49:00;26.30;60.40
29663;DHT22;16578;53.266;7.920;2023-08-21T12:51:27;26.30;59.90
29663;DHT22;16578;53.266;7.920;2023-08-21T12:53:54;26.30;60.00
29663;DHT22;16578;53.266;7.920;2023-08-21T12:56:19;26.30;59.90
29663;DHT22;16578;53.266;7.920;2023-08-21T12:58:46;26.40;59.50
29663;DHT22;16578;53.266;7.920;2023-08-21T13:01:12;26.40;59.50
29663;DHT22;16578;53.266;7.920;2023-08-21T13:03:38;26.50;58.70
29663;DHT22;16578;53.266;7.920;2023-08-21T13:06:03;26.40;58.60
29663;DHT22;16578;53.266;7.920;2023-08-21T13:08:29;26.50;58.10
29663;DHT22;16578;53.266;7.920;2023-08-21T13:10:55;26.50;57.80
29663;DHT22;16578;53.266;7.920;2023-08-21T13:13:20;26.50;57.80
29663;DHT22;16578;53.266;7.920;2023-08-21T13:15:46;26.50;57.50
29663;DHT22;16578;53.266;7.920;2023-08-21T13:18:12;26.50;57.90
29663;DHT22;16578;53.266;7.920;2023-08-21T13:20:42;26.50;58.00
29663;DHT22;16578;53.266;7.920;2023-08-21T13:23:08;26.60;57.90
29663;DHT22;16578;53.266;7.920;2023-08-21T13:25:34;26.60;58.60
29663;DHT22;16578;53.266;7.920;2023-08-21T13:28:01;26.60;58.00
29663;DHT22;16578;53.266;7.920;2023-08-21T13:30:29;26.70;58.80
29663;DHT22;16578;53.266;7.920;2023-08-21T13:32:54;26.70;58.20
29663;DHT22;16578;53.266;7.920;2023-08-21T13:35:20;26.70;58.10
29663;DHT22;16578;53.266;7.920;2023-08-21T13:37:48;26.70;58.00
29663;DHT22;16578;53.266;7.920;2023-08-21T13:40:13;26.80;58.20
29663;DHT22;16578;53.266;7.920;2023-08-21T13:42:45;26.80;58.30
29663;DHT22;16578;53.266;7.920;2023-08-21T13:45:13;26.80;58.00
29663;DHT22;16578;53.266;7.920;2023-08-21T13:47:44;26.80;58.10
29663;DHT22;16578;53.266;7.920;2023-08-21T13:50:10;26.90;58.20
29663;DHT22;16578;53.266;7.920;2023-08-21T13:52:35;26.90;57.70
29663;DHT22;16578;53.266;7.920;2023-08-21T13:55:02;26.90;57.70
29663;DHT22;16578;53.266;7.920;2023-08-21T13:57:30;26.90;57.60
29663;DHT22;16578;53.266;7.920;2023-08-21T13:59:59;26.90;57.50
29663;DHT22;16578;53.266;7.920;2023-08-21T14:02:24;26.90;57.30
29663;DHT22;16578;53.266;7.920;2023-08-21T14:04:50;26.90;57.30
29663;DHT22;16578;53.266;7.920;2023-08-21T14:07:16;26.90;57.20
29663;DHT22;16578;53.266;7.920;2023-08-21T14:09:41;26.90;56.90
29663;DHT22;16578;53.266;7.920;2023-08-21T14:12:07;26.90;56.50
29663;DHT22;16578;53.266;7.920;2023-08-21T14:14:34;26.90;56.90
29663;DHT22;16578;53.266;7.920;2023-08-21T14:17:00;26.90;57.00
29663;DHT22;16578;53.266;7.920;2023-08-21T14:19:26;26.90;57.40
29663;DHT22;16578;53.266;7.920;2023-08-21T14:21:51;26.90;57.60
29663;DHT22;16578;53.266;7.920;2023-08-21T14:24:17;27.00;57.20
29663;DHT22;16578;53.266;7.920;2023-08-21T14:26:43;26.90;56.80
29663;DHT22;16578;53.266;7.920;2023-08-21T14:29:08;26.90;57.10
29663;DHT22;16578;53.266;7.920;2023-08-21T14:31:34;26.90;56.70
29663;DHT22;16578;53.266;7.920;2023-08-21T14:33:59;26.90;57.00
29663;DHT22;16578;53.266;7.920;2023-08-21T14:36:25;26.90;56.90
29663;DHT22;16578;53.266;7.920;2023-08-21T14:38:51;26.90;56.80
29663;DHT22;16578;53.266;7.920;2023-08-21T14:41:17;26.80;57.00
29663;DHT22;16578;53.266;7.920;2023-08-21T14:43:43;26.90;56.90
29663;DHT22;16578;53.266;7.920;2023-08-21T14:46:09;26.90;56.60
29663;DHT22;16578;53.266;7.920;2023-08-21T14:48:35;26.90;56.90
29663;DHT22;16578;53.266;7.920;2023-08-21T14:51:01;26.90;56.70
29663;DHT22;16578;53.266;7.920;2023-08-21T14:53:26;26.90;56.30
29663;DHT22;16578;53.266;7.920;2023-08-21T14:55:52;26.80;56.30
29663;DHT22;16578;53.266;7.920;2023-08-21T14:58:17;26.90;56.50
29663;DHT22;16578;53.266;7.920;2023-08-21T15:00:43;26.90;57.00
29663;DHT22;16578;53.266;7.920;2023-08-21T15:03:08;26.90;57.20
29663;DHT22;16578;53.266;7.920;2023-08-21T15:05:34;26.90;56.90
29663;DHT22;16578;53.266;7.920;2023-08-21T15:07:59;26.90;56.50
29663;DHT22;16578;53.266;7.920;2023-08-21T15:10:30;26.90;56.10
29663;DHT22;16578;53.266;7.920;2023-08-21T15:12:55;26.90;55.80
29663;DHT22;16578;53.266;7.920;2023-08-21T15:15:21;26.90;55.40
29663;DHT22;16578;53.266;7.920;2023-08-21T15:17:47;27.00;55.80
29663;DHT22;16578;53.266;7.920;2023-08-21T15:20:13;27.00;55.50
29663;DHT22;16578;53.266;7.920;2023-08-21T15:22:41;27.00;55.80
29663;DHT22;16578;53.266;7.920;2023-08-21T15:25:08;27.00;56.00
29663;DHT22;16578;53.266;7.920;2023-08-21T15:27:34;27.00;56.00
29663;DHT22;16578;53.266;7.920;2023-08-21T15:29:59;27.00;56.30
29663;DHT22;16578;53.266;7.920;2023-08-21T15:32:25;27.00;56.00